PWSweather.com
Personal Weather Stations
Station Observations
KC4KQE
Superstition Mountains, Apache Junction, AZ 85119

Superstition MountainsApache Junction, AZ 85119

Lat: 33.41578, Lon: -111.49328

Elevation: 1850

Station Type: Davis Vantage Pro2 Plus

http://kc4kqe.org/

High Low Average
Temperature 105.4°F40.8°C 77.5°F25.3°C 91.9°F33.3°C
Dew Point 35.9°F2.2°C 20.2°F-6.6°C 30.4°F-0.9°C
Winds 15.0 mph 24.1 kmh Calm Calm 3.0 mph S4.8 kmh S
Wind Gusts 19.0 mph30.6 kmh -- 7.0 mph11.3 kmh
Humidity 21% 6% 12%
Pressure 29.90 in1012.5 mb 29.79 in1008.8 mb -
Precipitation 0.00 in0.0 mm - -
Hour Temp Dew Point Humidity Winds Wind Gusts Pressure Precip Precip Rate Daily Precip Total
12:00 AM 84.8°F29.3°C 31.9°F-0.1°C 15% 2.0 mph SE3.2 kmh SE 4.0 mph6.4 kmh 29.82 in1009.8 mb 0.00 in0.0 mm 0.00 in0.0 mm 0.00 in0.0 mm
12:05 AM 84.8°F29.3°C 31.9°F-0.1°C 15% 2.0 mph SE3.2 kmh SE 5.0 mph8.0 kmh 29.82 in1009.8 mb 0.00 in0.0 mm 0.00 in0.0 mm 0.00 in0.0 mm
12:10 AM 84.8°F29.3°C 31.9°F-0.1°C 15% 5.0 mph SE8.0 kmh SE 5.0 mph8.0 kmh 29.82 in1009.8 mb 0.00 in0.0 mm 0.00 in0.0 mm 0.00 in0.0 mm
12:15 AM 84.7°F29.3°C 31.9°F-0.1°C 15% 4.0 mph SE6.4 kmh SE 7.0 mph11.3 kmh 29.82 in1009.8 mb 0.00 in0.0 mm 0.00 in0.0 mm 0.00 in0.0 mm
12:20 AM 84.5°F29.2°C 31.7°F-0.2°C 15% 4.0 mph ESE6.4 kmh ESE 7.0 mph11.3 kmh 29.82 in1009.8 mb 0.00 in0.0 mm 0.00 in0.0 mm 0.00 in0.0 mm
12:25 AM 84.2°F29.0°C 31.5°F-0.3°C 15% 4.0 mph SE6.4 kmh SE 8.0 mph12.9 kmh 29.82 in1009.8 mb 0.00 in0.0 mm 0.00 in0.0 mm 0.00 in0.0 mm
12:30 AM 83.9°F28.8°C 32.8°F0.4°C 16% 3.0 mph SE4.8 kmh SE 9.0 mph14.5 kmh 29.82 in1009.8 mb 0.00 in0.0 mm 0.00 in0.0 mm 0.00 in0.0 mm
12:35 AM 83.8°F28.8°C 32.8°F0.4°C 16% 4.0 mph 6.4 kmh 9.0 mph14.5 kmh 29.82 in1009.8 mb 0.00 in0.0 mm 0.00 in0.0 mm 0.00 in0.0 mm
12:40 AM 83.6°F28.7°C 32.6°F0.3°C 16% 3.0 mph SE4.8 kmh SE 8.0 mph12.9 kmh 29.82 in1009.8 mb 0.00 in0.0 mm 0.00 in0.0 mm 0.00 in0.0 mm
12:45 AM 83.5°F28.6°C 32.5°F0.3°C 16% 1.0 mph SE1.6 kmh SE 9.0 mph14.5 kmh 29.82 in1009.8 mb 0.00 in0.0 mm 0.00 in0.0 mm 0.00 in0.0 mm
12:50 AM 83.4°F28.6°C 32.4°F0.2°C 16% 3.0 mph SE4.8 kmh SE 6.0 mph9.7 kmh 29.82 in1009.8 mb 0.00 in0.0 mm 0.00 in0.0 mm 0.00 in0.0 mm
12:55 AM 83.2°F28.4°C 32.3°F0.2°C 16% 3.0 mph SE4.8 kmh SE 7.0 mph11.3 kmh 29.82 in1009.8 mb 0.00 in0.0 mm 0.00 in0.0 mm 0.00 in0.0 mm
01:00 AM 83.0°F28.3°C 32.1°F0.1°C 16% 3.0 mph SE4.8 kmh SE 6.0 mph9.7 kmh 29.82 in1009.8 mb 0.00 in0.0 mm 0.00 in0.0 mm 0.00 in0.0 mm
01:05 AM 82.9°F28.3°C 32.0°F0.0°C 16% 2.0 mph SE3.2 kmh SE 5.0 mph8.0 kmh 29.83 in1010.2 mb 0.00 in0.0 mm 0.00 in0.0 mm 0.00 in0.0 mm
01:10 AM 82.7°F28.2°C 31.9°F-0.1°C 16% 2.0 mph SE3.2 kmh SE 3.0 mph4.8 kmh 29.83 in1010.2 mb 0.00 in0.0 mm 0.00 in0.0 mm 0.00 in0.0 mm
01:15 AM 82.5°F28.1°C 31.7°F-0.2°C 16% 2.0 mph SE3.2 kmh SE 3.0 mph4.8 kmh 29.83 in1010.2 mb 0.00 in0.0 mm 0.00 in0.0 mm 0.00 in0.0 mm
01:20 AM 82.2°F27.9°C 31.5°F-0.3°C 16% 3.0 mph SSE4.8 kmh SSE 3.0 mph4.8 kmh 29.83 in1010.2 mb 0.00 in0.0 mm 0.00 in0.0 mm 0.00 in0.0 mm
01:25 AM 81.9°F27.7°C 29.6°F-1.3°C 15% 1.0 mph SE1.6 kmh SE 5.0 mph8.0 kmh 29.83 in1010.2 mb 0.00 in0.0 mm 0.00 in0.0 mm 0.00 in0.0 mm
01:30 AM 81.7°F27.6°C 29.5°F-1.4°C 15% 2.0 mph SE3.2 kmh SE 4.0 mph6.4 kmh 29.83 in1010.2 mb 0.00 in0.0 mm 0.00 in0.0 mm 0.00 in0.0 mm
01:35 AM 81.5°F27.5°C 27.6°F-2.4°C 14% 3.0 mph SE4.8 kmh SE 5.0 mph8.0 kmh 29.83 in1010.2 mb 0.00 in0.0 mm 0.00 in0.0 mm 0.00 in0.0 mm
01:40 AM 81.5°F27.5°C 27.6°F-2.4°C 14% 2.0 mph SE3.2 kmh SE 4.0 mph6.4 kmh 29.83 in1010.2 mb 0.00 in0.0 mm 0.00 in0.0 mm 0.00 in0.0 mm
01:45 AM 81.5°F27.5°C 27.6°F-2.4°C 14% 3.0 mph SE4.8 kmh SE 7.0 mph11.3 kmh 29.83 in1010.2 mb 0.00 in0.0 mm 0.00 in0.0 mm 0.00 in0.0 mm
01:50 AM 81.4°F27.4°C 27.6°F-2.4°C 14% 2.0 mph SE3.2 kmh SE 7.0 mph11.3 kmh 29.84 in1010.5 mb 0.00 in0.0 mm 0.00 in0.0 mm 0.00 in0.0 mm
01:55 AM 81.4°F27.4°C 27.6°F-2.4°C 14% Calm Calm 3.0 mph4.8 kmh 29.84 in1010.5 mb 0.00 in0.0 mm 0.00 in0.0 mm 0.00 in0.0 mm
02:00 AM 81.3°F27.4°C 27.5°F-2.5°C 14% 1.0 mph SE1.6 kmh SE 2.0 mph3.2 kmh 29.84 in1010.5 mb 0.00 in0.0 mm 0.00 in0.0 mm 0.00 in0.0 mm
02:05 AM 81.1°F27.3°C 27.3°F-2.6°C 14% 1.0 mph SE1.6 kmh SE 2.0 mph3.2 kmh 29.83 in1010.2 mb 0.00 in0.0 mm 0.00 in0.0 mm 0.00 in0.0 mm
02:10 AM 80.8°F27.1°C 27.1°F-2.7°C 14% Calm Calm 5.0 mph8.0 kmh 29.84 in1010.5 mb 0.00 in0.0 mm 0.00 in0.0 mm 0.00 in0.0 mm
02:15 AM 80.6°F27.0°C 26.9°F-2.8°C 14% 4.0 mph SE6.4 kmh SE 5.0 mph8.0 kmh 29.84 in1010.5 mb 0.00 in0.0 mm 0.00 in0.0 mm 0.00 in0.0 mm
02:20 AM 80.5°F26.9°C 26.9°F-2.8°C 14% 4.0 mph SE6.4 kmh SE 5.0 mph8.0 kmh 29.84 in1010.5 mb 0.00 in0.0 mm 0.00 in0.0 mm 0.00 in0.0 mm
02:25 AM 80.4°F26.9°C 26.8°F-2.9°C 14% 3.0 mph SE4.8 kmh SE 5.0 mph8.0 kmh 29.84 in1010.5 mb 0.00 in0.0 mm 0.00 in0.0 mm 0.00 in0.0 mm
02:30 AM 80.3°F26.8°C 26.7°F-2.9°C 14% 4.0 mph SE6.4 kmh SE 6.0 mph9.7 kmh 29.84 in1010.5 mb 0.00 in0.0 mm 0.00 in0.0 mm 0.00 in0.0 mm
02:35 AM 80.4°F26.9°C 26.8°F-2.9°C 14% 2.0 mph SE3.2 kmh SE 7.0 mph11.3 kmh 29.84 in1010.5 mb 0.00 in0.0 mm 0.00 in0.0 mm 0.00 in0.0 mm
02:40 AM 80.4°F26.9°C 26.8°F-2.9°C 14% 3.0 mph SE4.8 kmh SE 6.0 mph9.7 kmh 29.84 in1010.5 mb 0.00 in0.0 mm 0.00 in0.0 mm 0.00 in0.0 mm
02:45 AM 80.4°F26.9°C 26.8°F-2.9°C 14% 4.0 mph ESE6.4 kmh ESE 7.0 mph11.3 kmh 29.84 in1010.5 mb 0.00 in0.0 mm 0.00 in0.0 mm 0.00 in0.0 mm
02:50 AM 80.4°F26.9°C 26.8°F-2.9°C 14% 4.0 mph E6.4 kmh E 7.0 mph11.3 kmh 29.84 in1010.5 mb 0.00 in0.0 mm 0.00 in0.0 mm 0.00 in0.0 mm
02:55 AM 80.4°F26.9°C 26.8°F-2.9°C 14% 2.0 mph SE3.2 kmh SE 5.0 mph8.0 kmh 29.84 in1010.5 mb 0.00 in0.0 mm 0.00 in0.0 mm 0.00 in0.0 mm
03:00 AM 80.4°F26.9°C 26.8°F-2.9°C 14% 1.0 mph SE1.6 kmh SE 5.0 mph8.0 kmh 29.84 in1010.5 mb 0.00 in0.0 mm 0.00 in0.0 mm 0.00 in0.0 mm
03:05 AM 80.4°F26.9°C 26.8°F-2.9°C 14% 3.0 mph SE4.8 kmh SE 5.0 mph8.0 kmh 29.84 in1010.5 mb 0.00 in0.0 mm 0.00 in0.0 mm 0.00 in0.0 mm
03:10 AM 80.4°F26.9°C 26.8°F-2.9°C 14% 3.0 mph ESE4.8 kmh ESE 6.0 mph9.7 kmh 29.84 in1010.5 mb 0.00 in0.0 mm 0.00 in0.0 mm 0.00 in0.0 mm
03:15 AM 80.4°F26.9°C 26.8°F-2.9°C 14% 3.0 mph SE4.8 kmh SE 5.0 mph8.0 kmh 29.84 in1010.5 mb 0.00 in0.0 mm 0.00 in0.0 mm 0.00 in0.0 mm
03:20 AM 80.3°F26.8°C 26.7°F-2.9°C 14% 2.0 mph SE3.2 kmh SE 4.0 mph6.4 kmh 29.84 in1010.5 mb 0.00 in0.0 mm 0.00 in0.0 mm 0.00 in0.0 mm
03:25 AM 80.4°F26.9°C 26.8°F-2.9°C 14% 4.0 mph SE6.4 kmh SE 5.0 mph8.0 kmh 29.84 in1010.5 mb 0.00 in0.0 mm 0.00 in0.0 mm 0.00 in0.0 mm
03:30 AM 80.3°F26.8°C 26.7°F-2.9°C 14% 3.0 mph SE4.8 kmh SE 7.0 mph11.3 kmh 29.84 in1010.5 mb 0.00 in0.0 mm 0.00 in0.0 mm 0.00 in0.0 mm
03:35 AM 80.3°F26.8°C 26.7°F-2.9°C 14% 2.0 mph SE3.2 kmh SE 4.0 mph6.4 kmh 29.84 in1010.5 mb 0.00 in0.0 mm 0.00 in0.0 mm 0.00 in0.0 mm
03:40 AM 80.3°F26.8°C 26.7°F-2.9°C 14% 1.0 mph SE1.6 kmh SE 5.0 mph8.0 kmh 29.84 in1010.5 mb 0.00 in0.0 mm 0.00 in0.0 mm 0.00 in0.0 mm
03:45 AM 80.3°F26.8°C 26.7°F-2.9°C 14% 1.0 mph SE1.6 kmh SE 5.0 mph8.0 kmh 29.84 in1010.5 mb 0.00 in0.0 mm 0.00 in0.0 mm 0.00 in0.0 mm
03:50 AM 80.3°F26.8°C 26.7°F-2.9°C 14% 3.0 mph SE4.8 kmh SE 4.0 mph6.4 kmh 29.84 in1010.5 mb 0.00 in0.0 mm 0.00 in0.0 mm 0.00 in0.0 mm
03:55 AM 80.2°F26.8°C 26.6°F-3.0°C 14% 3.0 mph SE4.8 kmh SE 5.0 mph8.0 kmh 29.84 in1010.5 mb 0.00 in0.0 mm 0.00 in0.0 mm 0.00 in0.0 mm
04:00 AM 80.2°F26.8°C 26.6°F-3.0°C 14% 2.0 mph SE3.2 kmh SE 5.0 mph8.0 kmh 29.84 in1010.5 mb 0.00 in0.0 mm 0.00 in0.0 mm 0.00 in0.0 mm
04:05 AM 80.1°F26.7°C 28.2°F-2.1°C 15% 8.0 mph SE12.9 kmh SE 8.0 mph12.9 kmh 29.85 in1010.8 mb 0.00 in0.0 mm 0.00 in0.0 mm 0.00 in0.0 mm
04:10 AM 80.1°F26.7°C 28.2°F-2.1°C 15% 4.0 mph SE6.4 kmh SE 8.0 mph12.9 kmh 29.85 in1010.8 mb 0.00 in0.0 mm 0.00 in0.0 mm 0.00 in0.0 mm
04:15 AM 80.2°F26.8°C 28.3°F-2.1°C 15% 2.0 mph SE3.2 kmh SE 6.0 mph9.7 kmh 29.85 in1010.8 mb 0.00 in0.0 mm 0.00 in0.0 mm 0.00 in0.0 mm
04:20 AM 80.2°F26.8°C 29.9°F-1.2°C 16% 2.0 mph SE3.2 kmh SE 7.0 mph11.3 kmh 29.85 in1010.8 mb 0.00 in0.0 mm 0.00 in0.0 mm 0.00 in0.0 mm
04:25 AM 80.2°F26.8°C 29.9°F-1.2°C 16% 2.0 mph SE3.2 kmh SE 5.0 mph8.0 kmh 29.85 in1010.8 mb 0.00 in0.0 mm 0.00 in0.0 mm 0.00 in0.0 mm
04:30 AM 80.1°F26.7°C 29.8°F-1.2°C 16% 3.0 mph SE4.8 kmh SE 5.0 mph8.0 kmh 29.85 in1010.8 mb 0.00 in0.0 mm 0.00 in0.0 mm 0.00 in0.0 mm
04:35 AM 79.9°F26.6°C 29.6°F-1.3°C 16% 2.0 mph SE3.2 kmh SE 4.0 mph6.4 kmh 29.85 in1010.8 mb 0.00 in0.0 mm 0.00 in0.0 mm 0.00 in0.0 mm
04:40 AM 79.8°F26.6°C 31.0°F-0.6°C 17% 4.0 mph SE6.4 kmh SE 5.0 mph8.0 kmh 29.85 in1010.8 mb 0.00 in0.0 mm 0.00 in0.0 mm 0.00 in0.0 mm
04:45 AM 79.7°F26.5°C 31.0°F-0.6°C 17% 3.0 mph SE4.8 kmh SE 6.0 mph9.7 kmh 29.85 in1010.8 mb 0.00 in0.0 mm 0.00 in0.0 mm 0.00 in0.0 mm
04:50 AM 79.7°F26.5°C 31.0°F-0.6°C 17% 2.0 mph SE3.2 kmh SE 5.0 mph8.0 kmh 29.85 in1010.8 mb 0.00 in0.0 mm 0.00 in0.0 mm 0.00 in0.0 mm
04:55 AM 79.6°F26.4°C 30.9°F-0.6°C 17% 4.0 mph SE6.4 kmh SE 7.0 mph11.3 kmh 29.85 in1010.8 mb 0.00 in0.0 mm 0.00 in0.0 mm 0.00 in0.0 mm
05:00 AM 79.5°F26.4°C 30.8°F-0.7°C 17% 3.0 mph SE4.8 kmh SE 5.0 mph8.0 kmh 29.85 in1010.8 mb 0.00 in0.0 mm 0.00 in0.0 mm 0.00 in0.0 mm
05:05 AM 79.4°F26.3°C 30.7°F-0.7°C 17% 1.0 mph SE1.6 kmh SE 5.0 mph8.0 kmh 29.85 in1010.8 mb 0.00 in0.0 mm 0.00 in0.0 mm 0.00 in0.0 mm
05:10 AM 79.2°F26.2°C 32.0°F0.0°C 18% 1.0 mph SE1.6 kmh SE 4.0 mph6.4 kmh 29.86 in1011.2 mb 0.00 in0.0 mm 0.00 in0.0 mm 0.00 in0.0 mm
05:15 AM 79.1°F26.2°C 31.9°F-0.1°C 18% Calm Calm 6.0 mph9.7 kmh 29.86 in1011.2 mb 0.00 in0.0 mm 0.00 in0.0 mm 0.00 in0.0 mm
05:20 AM 79.0°F26.1°C 31.8°F-0.1°C 18% 3.0 mph SE4.8 kmh SE 4.0 mph6.4 kmh 29.86 in1011.2 mb 0.00 in0.0 mm 0.00 in0.0 mm 0.00 in0.0 mm
05:25 AM 78.9°F26.1°C 31.7°F-0.2°C 18% 2.0 mph SE3.2 kmh SE 5.0 mph8.0 kmh 29.86 in1011.2 mb 0.00 in0.0 mm 0.00 in0.0 mm 0.00 in0.0 mm
05:30 AM 78.8°F26.0°C 31.7°F-0.2°C 18% 2.0 mph SE3.2 kmh SE 5.0 mph8.0 kmh 29.86 in1011.2 mb 0.00 in0.0 mm 0.00 in0.0 mm 0.00 in0.0 mm
05:35 AM 78.7°F25.9°C 32.9°F0.5°C 19% 4.0 mph SE6.4 kmh SE 7.0 mph11.3 kmh 29.86 in1011.2 mb 0.00 in0.0 mm 0.00 in0.0 mm 0.00 in0.0 mm
05:40 AM 78.7°F25.9°C 32.9°F0.5°C 19% 1.0 mph SE1.6 kmh SE 5.0 mph8.0 kmh 29.86 in1011.2 mb 0.00 in0.0 mm 0.00 in0.0 mm 0.00 in0.0 mm
05:45 AM 78.6°F25.9°C 32.8°F0.4°C 19% 2.0 mph SE3.2 kmh SE 3.0 mph4.8 kmh 29.86 in1011.2 mb 0.00 in0.0 mm 0.00 in0.0 mm 0.00 in0.0 mm
05:50 AM 78.5°F25.8°C 32.7°F0.4°C 19% 1.0 mph SE1.6 kmh SE 2.0 mph3.2 kmh 29.86 in1011.2 mb 0.00 in0.0 mm 0.00 in0.0 mm 0.00 in0.0 mm
05:55 AM 78.4°F25.8°C 33.9°F1.1°C 20% Calm Calm 2.0 mph3.2 kmh 29.86 in1011.2 mb 0.00 in0.0 mm 0.00 in0.0 mm 0.00 in0.0 mm
06:00 AM 78.2°F25.7°C 33.8°F1.0°C 20% Calm Calm -- 29.87 in1011.5 mb 0.00 in0.0 mm 0.00 in0.0 mm 0.00 in0.0 mm
06:05 AM 78.0°F25.6°C 34.8°F1.6°C 21% Calm Calm -- 29.87 in1011.5 mb 0.00 in0.0 mm 0.00 in0.0 mm 0.00 in0.0 mm
06:10 AM 77.7°F25.4°C 34.6°F1.4°C 21% 2.0 mph SE3.2 kmh SE 3.0 mph4.8 kmh 29.87 in1011.5 mb 0.00 in0.0 mm 0.00 in0.0 mm 0.00 in0.0 mm
06:15 AM 77.5°F25.3°C 34.4°F1.3°C 21% 4.0 mph ESE6.4 kmh ESE 5.0 mph8.0 kmh 29.87 in1011.5 mb 0.00 in0.0 mm 0.00 in0.0 mm 0.00 in0.0 mm
06:20 AM 77.9°F25.5°C 34.8°F1.6°C 21% 3.0 mph SE4.8 kmh SE 6.0 mph9.7 kmh 29.87 in1011.5 mb 0.00 in0.0 mm 0.00 in0.0 mm 0.00 in0.0 mm
06:25 AM 78.5°F25.8°C 34.0°F1.1°C 20% 2.0 mph SE3.2 kmh SE 4.0 mph6.4 kmh 29.87 in1011.5 mb 0.00 in0.0 mm 0.00 in0.0 mm 0.00 in0.0 mm
06:30 AM 79.0°F26.1°C 35.7°F2.1°C 21% 4.0 mph ESE6.4 kmh ESE 4.0 mph6.4 kmh 29.87 in1011.5 mb 0.00 in0.0 mm 0.00 in0.0 mm 0.00 in0.0 mm
06:35 AM 80.1°F26.7°C 35.3°F1.8°C 20% 4.0 mph ESE6.4 kmh ESE -- 29.87 in1011.5 mb 0.00 in0.0 mm 0.00 in0.0 mm 0.00 in0.0 mm
06:40 AM 80.9°F27.2°C 34.7°F1.5°C 19% 2.0 mph SE3.2 kmh SE 3.0 mph4.8 kmh 29.87 in1011.5 mb 0.00 in0.0 mm 0.00 in0.0 mm 0.00 in0.0 mm
06:45 AM 81.8°F27.7°C 35.4°F1.9°C 19% Calm Calm 4.0 mph6.4 kmh 29.88 in1011.9 mb 0.00 in0.0 mm 0.00 in0.0 mm 0.00 in0.0 mm
06:50 AM 82.6°F28.1°C 34.7°F1.5°C 18% Calm Calm 6.0 mph9.7 kmh 29.88 in1011.9 mb 0.00 in0.0 mm 0.00 in0.0 mm 0.00 in0.0 mm
06:55 AM 83.3°F28.5°C 35.3°F1.8°C 18% 2.0 mph SE3.2 kmh SE 5.0 mph8.0 kmh 29.88 in1011.9 mb 0.00 in0.0 mm 0.00 in0.0 mm 0.00 in0.0 mm
07:00 AM 84.1°F28.9°C 34.5°F1.4°C 17% 2.0 mph SE3.2 kmh SE 6.0 mph9.7 kmh 29.88 in1011.9 mb 0.00 in0.0 mm 0.00 in0.0 mm 0.00 in0.0 mm
07:05 AM 84.7°F29.3°C 35.0°F1.7°C 17% 3.0 mph SE4.8 kmh SE 5.0 mph8.0 kmh 29.88 in1011.9 mb 0.00 in0.0 mm 0.00 in0.0 mm 0.00 in0.0 mm
07:10 AM 85.4°F29.7°C 34.0°F1.1°C 16% 5.0 mph SE8.0 kmh SE 8.0 mph12.9 kmh 29.88 in1011.9 mb 0.00 in0.0 mm 0.00 in0.0 mm 0.00 in0.0 mm
07:15 AM 86.0°F30.0°C 34.5°F1.4°C 16% 4.0 mph SE6.4 kmh SE 6.0 mph9.7 kmh 29.88 in1011.9 mb 0.00 in0.0 mm 0.00 in0.0 mm 0.00 in0.0 mm
07:20 AM 86.5°F30.3°C 34.9°F1.6°C 16% 2.0 mph SSE3.2 kmh SSE 11.0 mph17.7 kmh 29.88 in1011.9 mb 0.00 in0.0 mm 0.00 in0.0 mm 0.00 in0.0 mm
07:25 AM 86.8°F30.4°C 35.1°F1.7°C 16% 4.0 mph SE6.4 kmh SE 8.0 mph12.9 kmh 29.89 in1012.2 mb 0.00 in0.0 mm 0.00 in0.0 mm 0.00 in0.0 mm
07:30 AM 87.1°F30.6°C 35.4°F1.9°C 16% 2.0 mph S3.2 kmh S 8.0 mph12.9 kmh 29.89 in1012.2 mb 0.00 in0.0 mm 0.00 in0.0 mm 0.00 in0.0 mm
07:35 AM 87.4°F30.8°C 34.0°F1.1°C 15% 2.0 mph SE3.2 kmh SE 4.0 mph6.4 kmh 29.89 in1012.2 mb 0.00 in0.0 mm 0.00 in0.0 mm 0.00 in0.0 mm
07:40 AM 87.7°F30.9°C 34.2°F1.2°C 15% 3.0 mph SSE4.8 kmh SSE 10.0 mph16.1 kmh 29.89 in1012.2 mb 0.00 in0.0 mm 0.00 in0.0 mm 0.00 in0.0 mm
07:45 AM 88.0°F31.1°C 34.5°F1.4°C 15% 2.0 mph SE3.2 kmh SE 9.0 mph14.5 kmh 29.89 in1012.2 mb 0.00 in0.0 mm 0.00 in0.0 mm 0.00 in0.0 mm
07:50 AM 88.4°F31.3°C 33.1°F0.6°C 14% 7.0 mph SE11.3 kmh SE 11.0 mph17.7 kmh 29.89 in1012.2 mb 0.00 in0.0 mm 0.00 in0.0 mm 0.00 in0.0 mm
07:55 AM 88.7°F31.5°C 35.0°F1.7°C 15% 3.0 mph SSE4.8 kmh SSE 8.0 mph12.9 kmh 29.89 in1012.2 mb 0.00 in0.0 mm 0.00 in0.0 mm 0.00 in0.0 mm
08:00 AM 88.9°F31.6°C 33.5°F0.8°C 14% 3.0 mph SE4.8 kmh SE 6.0 mph9.7 kmh 29.89 in1012.2 mb 0.00 in0.0 mm 0.00 in0.0 mm 0.00 in0.0 mm
08:05 AM 89.2°F31.8°C 33.7°F0.9°C 14% 5.0 mph ESE8.0 kmh ESE 7.0 mph11.3 kmh 29.89 in1012.2 mb 0.00 in0.0 mm 0.00 in0.0 mm 0.00 in0.0 mm
08:10 AM 89.5°F31.9°C 33.9°F1.1°C 14% 3.0 mph SE4.8 kmh SE 8.0 mph12.9 kmh 29.89 in1012.2 mb 0.00 in0.0 mm 0.00 in0.0 mm 0.00 in0.0 mm
08:15 AM 89.8°F32.1°C 34.2°F1.2°C 14% 1.0 mph S1.6 kmh S 6.0 mph9.7 kmh 29.89 in1012.2 mb 0.00 in0.0 mm 0.00 in0.0 mm 0.00 in0.0 mm
08:20 AM 90.2°F32.3°C 34.5°F1.4°C 14% 5.0 mph SSE8.0 kmh SSE 9.0 mph14.5 kmh 29.89 in1012.2 mb 0.00 in0.0 mm 0.00 in0.0 mm 0.00 in0.0 mm
08:25 AM 90.4°F32.4°C 34.6°F1.4°C 14% 2.0 mph S3.2 kmh S 8.0 mph12.9 kmh 29.89 in1012.2 mb 0.00 in0.0 mm 0.00 in0.0 mm 0.00 in0.0 mm
08:30 AM 90.5°F32.5°C 32.9°F0.5°C 13% Calm Calm 6.0 mph9.7 kmh 29.89 in1012.2 mb 0.00 in0.0 mm 0.00 in0.0 mm 0.00 in0.0 mm
08:35 AM 90.6°F32.6°C 32.9°F0.5°C 13% 3.0 mph SE4.8 kmh SE 8.0 mph12.9 kmh 29.90 in1012.5 mb 0.00 in0.0 mm 0.00 in0.0 mm 0.00 in0.0 mm
08:40 AM 90.8°F32.7°C 33.1°F0.6°C 13% 2.0 mph SE3.2 kmh SE 12.0 mph19.3 kmh 29.89 in1012.2 mb 0.00 in0.0 mm 0.00 in0.0 mm 0.00 in0.0 mm
08:45 AM 90.9°F32.7°C 35.0°F1.7°C 14% 6.0 mph SW9.7 kmh SW 10.0 mph16.1 kmh 29.89 in1012.2 mb 0.00 in0.0 mm 0.00 in0.0 mm 0.00 in0.0 mm
08:50 AM 91.3°F32.9°C 33.5°F0.8°C 13% 3.0 mph SE4.8 kmh SE 7.0 mph11.3 kmh 29.89 in1012.2 mb 0.00 in0.0 mm 0.00 in0.0 mm 0.00 in0.0 mm
08:55 AM 91.5°F33.1°C 33.6°F0.9°C 13% 5.0 mph S8.0 kmh S 10.0 mph16.1 kmh 29.89 in1012.2 mb 0.00 in0.0 mm 0.00 in0.0 mm 0.00 in0.0 mm
09:00 AM 91.9°F33.3°C 34.0°F1.1°C 13% 6.0 mph SE9.7 kmh SE 9.0 mph14.5 kmh 29.89 in1012.2 mb 0.00 in0.0 mm 0.00 in0.0 mm 0.00 in0.0 mm
09:05 AM 92.3°F33.5°C 32.3°F0.2°C 12% 4.0 mph S6.4 kmh S 9.0 mph14.5 kmh 29.89 in1012.2 mb 0.00 in0.0 mm 0.00 in0.0 mm 0.00 in0.0 mm
09:10 AM 92.7°F33.7°C 32.6°F0.3°C 12% 7.0 mph SSE11.3 kmh SSE 10.0 mph16.1 kmh 29.89 in1012.2 mb 0.00 in0.0 mm 0.00 in0.0 mm 0.00 in0.0 mm
09:15 AM 92.8°F33.8°C 32.7°F0.4°C 12% 2.0 mph SE3.2 kmh SE 7.0 mph11.3 kmh 29.89 in1012.2 mb 0.00 in0.0 mm 0.00 in0.0 mm 0.00 in0.0 mm
09:20 AM 93.0°F33.9°C 32.8°F0.4°C 12% 5.0 mph SE8.0 kmh SE 11.0 mph17.7 kmh 29.89 in1012.2 mb 0.00 in0.0 mm 0.00 in0.0 mm 0.00 in0.0 mm
09:25 AM 93.2°F34.0°C 33.0°F0.6°C 12% 4.0 mph SSE6.4 kmh SSE 9.0 mph14.5 kmh 29.89 in1012.2 mb 0.00 in0.0 mm 0.00 in0.0 mm 0.00 in0.0 mm
09:30 AM 93.6°F34.2°C 33.3°F0.7°C 12% 1.0 mph SE1.6 kmh SE 6.0 mph9.7 kmh 29.89 in1012.2 mb 0.00 in0.0 mm 0.00 in0.0 mm 0.00 in0.0 mm
09:35 AM 93.8°F34.3°C 31.3°F-0.4°C 11% 2.0 mph SSE3.2 kmh SSE 9.0 mph14.5 kmh 29.89 in1012.2 mb 0.00 in0.0 mm 0.00 in0.0 mm 0.00 in0.0 mm
09:40 AM 94.0°F34.4°C 31.4°F-0.3°C 11% 3.0 mph SSW4.8 kmh SSW 11.0 mph17.7 kmh 29.89 in1012.2 mb 0.00 in0.0 mm 0.00 in0.0 mm 0.00 in0.0 mm
09:45 AM 94.4°F34.7°C 31.7°F-0.2°C 11% 4.0 mph S6.4 kmh S 8.0 mph12.9 kmh 29.89 in1012.2 mb 0.00 in0.0 mm 0.00 in0.0 mm 0.00 in0.0 mm
09:50 AM 95.0°F35.0°C 32.2°F0.1°C 11% 6.0 mph SSE9.7 kmh SSE 11.0 mph17.7 kmh 29.89 in1012.2 mb 0.00 in0.0 mm 0.00 in0.0 mm 0.00 in0.0 mm
09:55 AM 95.1°F35.1°C 32.3°F0.2°C 11% 5.0 mph S8.0 kmh S 12.0 mph19.3 kmh 29.90 in1012.5 mb 0.00 in0.0 mm 0.00 in0.0 mm 0.00 in0.0 mm
10:00 AM 95.5°F35.3°C 32.6°F0.3°C 11% 1.0 mph SSW1.6 kmh SSW 10.0 mph16.1 kmh 29.90 in1012.5 mb 0.00 in0.0 mm 0.00 in0.0 mm 0.00 in0.0 mm
10:05 AM 96.0°F35.6°C 32.9°F0.5°C 11% 3.0 mph SE4.8 kmh SE 11.0 mph17.7 kmh 29.90 in1012.5 mb 0.00 in0.0 mm 0.00 in0.0 mm 0.00 in0.0 mm
10:10 AM 95.9°F35.5°C 32.9°F0.5°C 11% 2.0 mph S3.2 kmh S 9.0 mph14.5 kmh 29.90 in1012.5 mb 0.00 in0.0 mm 0.00 in0.0 mm 0.00 in0.0 mm
10:15 AM 96.2°F35.7°C 33.1°F0.6°C 11% 5.0 mph S8.0 kmh S 10.0 mph16.1 kmh 29.90 in1012.5 mb 0.00 in0.0 mm 0.00 in0.0 mm 0.00 in0.0 mm
10:20 AM 96.4°F35.8°C 30.9°F-0.6°C 10% 5.0 mph S8.0 kmh S 14.0 mph22.5 kmh 29.90 in1012.5 mb 0.00 in0.0 mm 0.00 in0.0 mm 0.00 in0.0 mm
10:25 AM 96.8°F36.0°C 33.5°F0.8°C 11% 4.0 mph SSE6.4 kmh SSE 9.0 mph14.5 kmh 29.90 in1012.5 mb 0.00 in0.0 mm 0.00 in0.0 mm 0.00 in0.0 mm
10:30 AM 96.9°F36.1°C 31.3°F-0.4°C 10% 8.0 mph SSE12.9 kmh SSE 11.0 mph17.7 kmh 29.90 in1012.5 mb 0.00 in0.0 mm 0.00 in0.0 mm 0.00 in0.0 mm
10:35 AM 96.9°F36.1°C 31.3°F-0.4°C 10% 3.0 mph SE4.8 kmh SE 7.0 mph11.3 kmh 29.90 in1012.5 mb 0.00 in0.0 mm 0.00 in0.0 mm 0.00 in0.0 mm
10:40 AM 97.0°F36.1°C 28.7°F-1.8°C 9% 7.0 mph SSW11.3 kmh SSW 14.0 mph22.5 kmh 29.90 in1012.5 mb 0.00 in0.0 mm 0.00 in0.0 mm 0.00 in0.0 mm
10:45 AM 97.1°F36.2°C 28.8°F-1.8°C 9% 5.0 mph SW8.0 kmh SW 8.0 mph12.9 kmh 29.90 in1012.5 mb 0.00 in0.0 mm 0.00 in0.0 mm 0.00 in0.0 mm
10:50 AM 97.6°F36.4°C 29.2°F-1.6°C 9% 2.0 mph S3.2 kmh S 13.0 mph20.9 kmh 29.90 in1012.5 mb 0.00 in0.0 mm 0.00 in0.0 mm 0.00 in0.0 mm
10:55 AM 97.9°F36.6°C 32.0°F0.0°C 10% 2.0 mph SSW3.2 kmh SSW 11.0 mph17.7 kmh 29.90 in1012.5 mb 0.00 in0.0 mm 0.00 in0.0 mm 0.00 in0.0 mm
11:00 AM 97.8°F36.6°C 29.3°F-1.5°C 9% 6.0 mph S9.7 kmh S 9.0 mph14.5 kmh 29.89 in1012.2 mb 0.00 in0.0 mm 0.00 in0.0 mm 0.00 in0.0 mm
11:05 AM 97.9°F36.6°C 32.0°F0.0°C 10% 12.0 mph S19.3 kmh S 12.0 mph19.3 kmh 29.89 in1012.2 mb 0.00 in0.0 mm 0.00 in0.0 mm 0.00 in0.0 mm
11:10 AM 98.2°F36.8°C 29.6°F-1.3°C 9% 6.0 mph SE9.7 kmh SE 14.0 mph22.5 kmh 29.89 in1012.2 mb 0.00 in0.0 mm 0.00 in0.0 mm 0.00 in0.0 mm
11:15 AM 97.6°F36.4°C 31.8°F-0.1°C 10% 1.0 mph S1.6 kmh S 10.0 mph16.1 kmh 29.89 in1012.2 mb 0.00 in0.0 mm 0.00 in0.0 mm 0.00 in0.0 mm
11:20 AM 98.0°F36.7°C 32.1°F0.1°C 10% 6.0 mph S9.7 kmh S 13.0 mph20.9 kmh 29.89 in1012.2 mb 0.00 in0.0 mm 0.00 in0.0 mm 0.00 in0.0 mm
11:25 AM 98.1°F36.7°C 29.6°F-1.3°C 9% 2.0 mph SSE3.2 kmh SSE 10.0 mph16.1 kmh 29.89 in1012.2 mb 0.00 in0.0 mm 0.00 in0.0 mm 0.00 in0.0 mm
11:30 AM 98.0°F36.7°C 29.5°F-1.4°C 9% 3.0 mph S4.8 kmh S 11.0 mph17.7 kmh 29.89 in1012.2 mb 0.00 in0.0 mm 0.00 in0.0 mm 0.00 in0.0 mm
11:35 AM 98.6°F37.0°C 29.9°F-1.2°C 9% 7.0 mph S11.3 kmh S 13.0 mph20.9 kmh 29.89 in1012.2 mb 0.00 in0.0 mm 0.00 in0.0 mm 0.00 in0.0 mm
11:40 AM 99.0°F37.2°C 27.4°F-2.6°C 8% 8.0 mph SW12.9 kmh SW 15.0 mph24.1 kmh 29.89 in1012.2 mb 0.00 in0.0 mm 0.00 in0.0 mm 0.00 in0.0 mm
11:45 AM 99.1°F37.3°C 27.4°F-2.6°C 8% 6.0 mph SSE9.7 kmh SSE 15.0 mph24.1 kmh 29.88 in1011.9 mb 0.00 in0.0 mm 0.00 in0.0 mm 0.00 in0.0 mm
11:50 AM 99.5°F37.5°C 27.7°F-2.4°C 8% 6.0 mph S9.7 kmh S 12.0 mph19.3 kmh 29.88 in1011.9 mb 0.00 in0.0 mm 0.00 in0.0 mm 0.00 in0.0 mm
11:55 AM 99.9°F37.7°C 28.0°F-2.2°C 8% 2.0 mph SSW3.2 kmh SSW 8.0 mph12.9 kmh 29.88 in1011.9 mb 0.00 in0.0 mm 0.00 in0.0 mm 0.00 in0.0 mm
12:00 PM 100.1°F37.8°C 24.9°F-3.9°C 7% 10.0 mph 16.1 kmh 15.0 mph24.1 kmh 29.88 in1011.9 mb 0.00 in0.0 mm 0.00 in0.0 mm 0.00 in0.0 mm
12:05 PM 100.1°F37.8°C 24.9°F-3.9°C 7% 4.0 mph SW6.4 kmh SW 14.0 mph22.5 kmh 29.88 in1011.9 mb 0.00 in0.0 mm 0.00 in0.0 mm 0.00 in0.0 mm
12:10 PM 100.3°F37.9°C 28.3°F-2.1°C 8% 2.0 mph SW3.2 kmh SW 12.0 mph19.3 kmh 29.88 in1011.9 mb 0.00 in0.0 mm 0.00 in0.0 mm 0.00 in0.0 mm
12:15 PM 100.8°F38.2°C 25.4°F-3.7°C 7% 4.0 mph SSW6.4 kmh SSW 8.0 mph12.9 kmh 29.88 in1011.9 mb 0.00 in0.0 mm 0.00 in0.0 mm 0.00 in0.0 mm
12:20 PM 101.1°F38.4°C 28.9°F-1.7°C 8% 7.0 mph SSW11.3 kmh SSW 10.0 mph16.1 kmh 29.88 in1011.9 mb 0.00 in0.0 mm 0.00 in0.0 mm 0.00 in0.0 mm
12:25 PM 101.1°F38.4°C 28.9°F-1.7°C 8% 9.0 mph SW14.5 kmh SW 12.0 mph19.3 kmh 29.87 in1011.5 mb 0.00 in0.0 mm 0.00 in0.0 mm 0.00 in0.0 mm
12:30 PM 101.2°F38.4°C 25.7°F-3.5°C 7% 4.0 mph S6.4 kmh S 11.0 mph17.7 kmh 29.87 in1011.5 mb 0.00 in0.0 mm 0.00 in0.0 mm 0.00 in0.0 mm
12:35 PM 101.1°F38.4°C 28.9°F-1.7°C 8% 2.0 mph S3.2 kmh S 18.0 mph29.0 kmh 29.87 in1011.5 mb 0.00 in0.0 mm 0.00 in0.0 mm 0.00 in0.0 mm
12:40 PM 101.4°F38.6°C 29.1°F-1.6°C 8% 3.0 mph S4.8 kmh S 11.0 mph17.7 kmh 29.87 in1011.5 mb 0.00 in0.0 mm 0.00 in0.0 mm 0.00 in0.0 mm
12:45 PM 101.9°F38.8°C 29.5°F-1.4°C 8% 6.0 mph S9.7 kmh S 12.0 mph19.3 kmh 29.87 in1011.5 mb 0.00 in0.0 mm 0.00 in0.0 mm 0.00 in0.0 mm
12:50 PM 101.7°F38.7°C 29.3°F-1.5°C 8% 6.0 mph SSW9.7 kmh SSW 10.0 mph16.1 kmh 29.87 in1011.5 mb 0.00 in0.0 mm 0.00 in0.0 mm 0.00 in0.0 mm
12:55 PM 101.8°F38.8°C 29.4°F-1.4°C 8% 5.0 mph S8.0 kmh S 11.0 mph17.7 kmh 29.87 in1011.5 mb 0.00 in0.0 mm 0.00 in0.0 mm 0.00 in0.0 mm
01:00 PM 101.9°F38.8°C 29.5°F-1.4°C 8% 2.0 mph 3.2 kmh 8.0 mph12.9 kmh 29.86 in1011.2 mb 0.00 in0.0 mm 0.00 in0.0 mm 0.00 in0.0 mm
01:05 PM 102.0°F38.9°C 29.5°F-1.4°C 8% 5.0 mph SE8.0 kmh SE 11.0 mph17.7 kmh 29.86 in1011.2 mb 0.00 in0.0 mm 0.00 in0.0 mm 0.00 in0.0 mm
01:10 PM 101.6°F38.7°C 29.3°F-1.5°C 8% 3.0 mph SE4.8 kmh SE 8.0 mph12.9 kmh 29.86 in1011.2 mb 0.00 in0.0 mm 0.00 in0.0 mm 0.00 in0.0 mm
01:15 PM 101.7°F38.7°C 29.3°F-1.5°C 8% 4.0 mph SW6.4 kmh SW 10.0 mph16.1 kmh 29.86 in1011.2 mb 0.00 in0.0 mm 0.00 in0.0 mm 0.00 in0.0 mm
01:20 PM 102.1°F38.9°C 29.6°F-1.3°C 8% 7.0 mph SSW11.3 kmh SSW 11.0 mph17.7 kmh 29.86 in1011.2 mb 0.00 in0.0 mm 0.00 in0.0 mm 0.00 in0.0 mm
01:25 PM 102.3°F39.1°C 29.8°F-1.2°C 8% 5.0 mph SW8.0 kmh SW 8.0 mph12.9 kmh 29.85 in1010.8 mb 0.00 in0.0 mm 0.00 in0.0 mm 0.00 in0.0 mm
01:30 PM 102.8°F39.3°C 30.1°F-1.1°C 8% 7.0 mph SW11.3 kmh SW 10.0 mph16.1 kmh 29.85 in1010.8 mb 0.00 in0.0 mm 0.00 in0.0 mm 0.00 in0.0 mm
01:35 PM 103.3°F39.6°C 30.5°F-0.8°C 8% 3.0 mph SE4.8 kmh SE 10.0 mph16.1 kmh 29.85 in1010.8 mb 0.00 in0.0 mm 0.00 in0.0 mm 0.00 in0.0 mm
01:40 PM 103.2°F39.6°C 30.4°F-0.9°C 8% 7.0 mph S11.3 kmh S 14.0 mph22.5 kmh 29.85 in1010.8 mb 0.00 in0.0 mm 0.00 in0.0 mm 0.00 in0.0 mm
01:45 PM 103.0°F39.4°C 30.3°F-0.9°C 8% 2.0 mph SW3.2 kmh SW 13.0 mph20.9 kmh 29.85 in1010.8 mb 0.00 in0.0 mm 0.00 in0.0 mm 0.00 in0.0 mm
01:50 PM 102.6°F39.2°C 30.0°F-1.1°C 8% 15.0 mph 24.1 kmh 19.0 mph30.6 kmh 29.85 in1010.8 mb 0.00 in0.0 mm 0.00 in0.0 mm 0.00 in0.0 mm
01:55 PM 102.3°F39.1°C 29.8°F-1.2°C 8% 2.0 mph SSE3.2 kmh SSE 19.0 mph30.6 kmh 29.84 in1010.5 mb 0.00 in0.0 mm 0.00 in0.0 mm 0.00 in0.0 mm
02:00 PM 102.5°F39.2°C 29.9°F-1.2°C 8% 2.0 mph SSW3.2 kmh SSW 11.0 mph17.7 kmh 29.84 in1010.5 mb 0.00 in0.0 mm 0.00 in0.0 mm 0.00 in0.0 mm
02:05 PM 103.1°F39.5°C 30.3°F-0.9°C 8% 7.0 mph 11.3 kmh 12.0 mph19.3 kmh 29.84 in1010.5 mb 0.00 in0.0 mm 0.00 in0.0 mm 0.00 in0.0 mm
02:10 PM 103.2°F39.6°C 30.4°F-0.9°C 8% 5.0 mph 8.0 kmh 15.0 mph24.1 kmh 29.84 in1010.5 mb 0.00 in0.0 mm 0.00 in0.0 mm 0.00 in0.0 mm
02:15 PM 103.5°F39.7°C 30.6°F-0.8°C 8% 3.0 mph SW4.8 kmh SW 8.0 mph12.9 kmh 29.84 in1010.5 mb 0.00 in0.0 mm 0.00 in0.0 mm 0.00 in0.0 mm
02:20 PM 103.9°F39.9°C 30.9°F-0.6°C 8% 1.0 mph S1.6 kmh S 8.0 mph12.9 kmh 29.84 in1010.5 mb 0.00 in0.0 mm 0.00 in0.0 mm 0.00 in0.0 mm
02:25 PM 104.1°F40.1°C 31.1°F-0.5°C 8% 9.0 mph SW14.5 kmh SW 12.0 mph19.3 kmh 29.84 in1010.5 mb 0.00 in0.0 mm 0.00 in0.0 mm 0.00 in0.0 mm
02:30 PM 104.0°F40.0°C 31.0°F-0.6°C 8% 3.0 mph 4.8 kmh 9.0 mph14.5 kmh 29.83 in1010.2 mb 0.00 in0.0 mm 0.00 in0.0 mm 0.00 in0.0 mm
02:35 PM 104.3°F40.2°C 31.2°F-0.4°C 8% 5.0 mph SW8.0 kmh SW 12.0 mph19.3 kmh 29.83 in1010.2 mb 0.00 in0.0 mm 0.00 in0.0 mm 0.00 in0.0 mm
02:40 PM 104.3°F40.2°C 34.2°F1.2°C 9% 4.0 mph S6.4 kmh S 9.0 mph14.5 kmh 29.83 in1010.2 mb 0.00 in0.0 mm 0.00 in0.0 mm 0.00 in0.0 mm
02:45 PM 104.1°F40.1°C 34.0°F1.1°C 9% 2.0 mph S3.2 kmh S 7.0 mph11.3 kmh 29.83 in1010.2 mb 0.00 in0.0 mm 0.00 in0.0 mm 0.00 in0.0 mm
02:50 PM 104.2°F40.1°C 31.2°F-0.4°C 8% 2.0 mph WNW3.2 kmh WNW 7.0 mph11.3 kmh 29.83 in1010.2 mb 0.00 in0.0 mm 0.00 in0.0 mm 0.00 in0.0 mm
02:55 PM 104.6°F40.3°C 34.4°F1.3°C 9% 7.0 mph SW11.3 kmh SW 11.0 mph17.7 kmh 29.83 in1010.2 mb 0.00 in0.0 mm 0.00 in0.0 mm 0.00 in0.0 mm
03:00 PM 104.7°F40.4°C 34.4°F1.3°C 9% 3.0 mph W4.8 kmh W 9.0 mph14.5 kmh 29.82 in1009.8 mb 0.00 in0.0 mm 0.00 in0.0 mm 0.00 in0.0 mm
03:05 PM 104.4°F40.2°C 34.2°F1.2°C 9% 1.0 mph WSW1.6 kmh WSW 9.0 mph14.5 kmh 29.82 in1009.8 mb 0.00 in0.0 mm 0.00 in0.0 mm 0.00 in0.0 mm
03:10 PM 104.4°F40.2°C 34.2°F1.2°C 9% 6.0 mph S9.7 kmh S 11.0 mph17.7 kmh 29.82 in1009.8 mb 0.00 in0.0 mm 0.00 in0.0 mm 0.00 in0.0 mm
03:15 PM 104.8°F40.4°C 34.5°F1.4°C 9% 6.0 mph SW9.7 kmh SW 11.0 mph17.7 kmh 29.82 in1009.8 mb 0.00 in0.0 mm 0.00 in0.0 mm 0.00 in0.0 mm
03:20 PM 105.0°F40.6°C 31.7°F-0.2°C 8% 4.0 mph SSW6.4 kmh SSW 8.0 mph12.9 kmh 29.82 in1009.8 mb 0.00 in0.0 mm 0.00 in0.0 mm 0.00 in0.0 mm
03:25 PM 105.0°F40.6°C 31.7°F-0.2°C 8% 2.0 mph S3.2 kmh S 8.0 mph12.9 kmh 29.81 in1009.5 mb 0.00 in0.0 mm 0.00 in0.0 mm 0.00 in0.0 mm
03:30 PM 104.7°F40.4°C 31.5°F-0.3°C 8% 8.0 mph E12.9 kmh E 10.0 mph16.1 kmh 29.81 in1009.5 mb 0.00 in0.0 mm 0.00 in0.0 mm 0.00 in0.0 mm
03:35 PM 103.3°F39.6°C 33.4°F0.8°C 9% 1.0 mph ENE1.6 kmh ENE 9.0 mph14.5 kmh 29.81 in1009.5 mb 0.00 in0.0 mm 0.00 in0.0 mm 0.00 in0.0 mm
03:40 PM 103.6°F39.8°C 33.6°F0.9°C 9% 4.0 mph WSW6.4 kmh WSW 7.0 mph11.3 kmh 29.81 in1009.5 mb 0.00 in0.0 mm 0.00 in0.0 mm 0.00 in0.0 mm
03:45 PM 103.9°F39.9°C 33.9°F1.1°C 9% 7.0 mph W11.3 kmh W 9.0 mph14.5 kmh 29.80 in1009.1 mb 0.00 in0.0 mm 0.00 in0.0 mm 0.00 in0.0 mm
03:50 PM 104.0°F40.0°C 33.9°F1.1°C 9% 5.0 mph SSW8.0 kmh SSW 11.0 mph17.7 kmh 29.80 in1009.1 mb 0.00 in0.0 mm 0.00 in0.0 mm 0.00 in0.0 mm
03:55 PM 104.5°F40.3°C 31.4°F-0.3°C 8% 5.0 mph SW8.0 kmh SW 12.0 mph19.3 kmh 29.80 in1009.1 mb 0.00 in0.0 mm 0.00 in0.0 mm 0.00 in0.0 mm
04:00 PM 105.0°F40.6°C 31.7°F-0.2°C 8% 5.0 mph 8.0 kmh 10.0 mph16.1 kmh 29.80 in1009.1 mb 0.00 in0.0 mm 0.00 in0.0 mm 0.00 in0.0 mm
04:05 PM 105.2°F40.7°C 31.9°F-0.1°C 8% 1.0 mph SW1.6 kmh SW 7.0 mph11.3 kmh 29.80 in1009.1 mb 0.00 in0.0 mm 0.00 in0.0 mm 0.00 in0.0 mm
04:10 PM 105.3°F40.7°C 32.0°F0.0°C 8% 8.0 mph W12.9 kmh W 10.0 mph16.1 kmh 29.80 in1009.1 mb 0.00 in0.0 mm 0.00 in0.0 mm 0.00 in0.0 mm
04:15 PM 105.1°F40.6°C 31.8°F-0.1°C 8% 6.0 mph WSW9.7 kmh WSW 17.0 mph27.4 kmh 29.80 in1009.1 mb 0.00 in0.0 mm 0.00 in0.0 mm 0.00 in0.0 mm
04:20 PM 104.5°F40.3°C 31.4°F-0.3°C 8% 2.0 mph S3.2 kmh S 11.0 mph17.7 kmh 29.80 in1009.1 mb 0.00 in0.0 mm 0.00 in0.0 mm 0.00 in0.0 mm
04:25 PM 104.8°F40.4°C 31.6°F-0.2°C 8% 2.0 mph S3.2 kmh S 5.0 mph8.0 kmh 29.80 in1009.1 mb 0.00 in0.0 mm 0.00 in0.0 mm 0.00 in0.0 mm
04:30 PM 105.0°F40.6°C 31.7°F-0.2°C 8% 4.0 mph SSW6.4 kmh SSW 6.0 mph9.7 kmh 29.80 in1009.1 mb 0.00 in0.0 mm 0.00 in0.0 mm 0.00 in0.0 mm
04:35 PM 105.3°F40.7°C 32.0°F0.0°C 8% 2.0 mph NW3.2 kmh NW 5.0 mph8.0 kmh 29.79 in1008.8 mb 0.00 in0.0 mm 0.00 in0.0 mm 0.00 in0.0 mm
04:40 PM 105.4°F40.8°C 28.7°F-1.8°C 7% 12.0 mph 19.3 kmh 14.0 mph22.5 kmh 29.79 in1008.8 mb 0.00 in0.0 mm 0.00 in0.0 mm 0.00 in0.0 mm
04:45 PM 105.1°F40.6°C 31.8°F-0.1°C 8% 11.0 mph 17.7 kmh 16.0 mph25.7 kmh 29.79 in1008.8 mb 0.00 in0.0 mm 0.00 in0.0 mm 0.00 in0.0 mm
04:50 PM 104.6°F40.3°C 31.4°F-0.3°C 8% 15.0 mph WSW24.1 kmh WSW 18.0 mph29.0 kmh 29.79 in1008.8 mb 0.00 in0.0 mm 0.00 in0.0 mm 0.00 in0.0 mm
04:55 PM 103.9°F39.9°C 30.9°F-0.6°C 8% 3.0 mph WSW4.8 kmh WSW 16.0 mph25.7 kmh 29.79 in1008.8 mb 0.00 in0.0 mm 0.00 in0.0 mm 0.00 in0.0 mm
05:00 PM 103.6°F39.8°C 30.7°F-0.7°C 8% 9.0 mph 14.5 kmh 12.0 mph19.3 kmh 29.79 in1008.8 mb 0.00 in0.0 mm 0.00 in0.0 mm 0.00 in0.0 mm
05:05 PM 103.7°F39.8°C 30.8°F-0.7°C 8% 7.0 mph WSW11.3 kmh WSW 12.0 mph19.3 kmh 29.79 in1008.8 mb 0.00 in0.0 mm 0.00 in0.0 mm 0.00 in0.0 mm
05:10 PM 103.7°F39.8°C 30.8°F-0.7°C 8% 1.0 mph SW1.6 kmh SW 15.0 mph24.1 kmh 29.79 in1008.8 mb 0.00 in0.0 mm 0.00 in0.0 mm 0.00 in0.0 mm
05:15 PM 103.5°F39.7°C 30.6°F-0.8°C 8% 5.0 mph WSW8.0 kmh WSW 19.0 mph30.6 kmh 29.79 in1008.8 mb 0.00 in0.0 mm 0.00 in0.0 mm 0.00 in0.0 mm
05:20 PM 103.3°F39.6°C 30.5°F-0.8°C 8% 3.0 mph SW4.8 kmh SW 7.0 mph11.3 kmh 29.79 in1008.8 mb 0.00 in0.0 mm 0.00 in0.0 mm 0.00 in0.0 mm
05:25 PM 103.4°F39.7°C 30.6°F-0.8°C 8% 3.0 mph S4.8 kmh S 7.0 mph11.3 kmh 29.79 in1008.8 mb 0.00 in0.0 mm 0.00 in0.0 mm 0.00 in0.0 mm
05:30 PM 103.6°F39.8°C 30.7°F-0.7°C 8% 7.0 mph WSW11.3 kmh WSW 9.0 mph14.5 kmh 29.79 in1008.8 mb 0.00 in0.0 mm 0.00 in0.0 mm 0.00 in0.0 mm
05:35 PM 103.6°F39.8°C 27.4°F-2.6°C 7% 4.0 mph WSW6.4 kmh WSW 13.0 mph20.9 kmh 29.79 in1008.8 mb 0.00 in0.0 mm 0.00 in0.0 mm 0.00 in0.0 mm
05:40 PM 103.5°F39.7°C 27.4°F-2.6°C 7% 6.0 mph SW9.7 kmh SW 16.0 mph25.7 kmh 29.79 in1008.8 mb 0.00 in0.0 mm 0.00 in0.0 mm 0.00 in0.0 mm
05:45 PM 103.4°F39.7°C 27.3°F-2.6°C 7% 14.0 mph SW22.5 kmh SW 14.0 mph22.5 kmh 29.79 in1008.8 mb 0.00 in0.0 mm 0.00 in0.0 mm 0.00 in0.0 mm
05:50 PM 103.1°F39.5°C 27.1°F-2.7°C 7% 9.0 mph SW14.5 kmh SW 16.0 mph25.7 kmh 29.79 in1008.8 mb 0.00 in0.0 mm 0.00 in0.0 mm 0.00 in0.0 mm
05:55 PM 102.8°F39.3°C 26.9°F-2.8°C 7% 10.0 mph SW16.1 kmh SW 16.0 mph25.7 kmh 29.79 in1008.8 mb 0.00 in0.0 mm 0.00 in0.0 mm 0.00 in0.0 mm
06:00 PM 102.7°F39.3°C 26.8°F-2.9°C 7% 6.0 mph SW9.7 kmh SW 11.0 mph17.7 kmh 29.79 in1008.8 mb 0.00 in0.0 mm 0.00 in0.0 mm 0.00 in0.0 mm
06:05 PM 102.8°F39.3°C 26.9°F-2.8°C 7% 7.0 mph 11.3 kmh 11.0 mph17.7 kmh 29.79 in1008.8 mb 0.00 in0.0 mm 0.00 in0.0 mm 0.00 in0.0 mm
06:10 PM 102.7°F39.3°C 23.1°F-4.9°C 6% 7.0 mph 11.3 kmh 10.0 mph16.1 kmh 29.79 in1008.8 mb 0.00 in0.0 mm 0.00 in0.0 mm 0.00 in0.0 mm
06:15 PM 102.7°F39.3°C 23.1°F-4.9°C 6% 3.0 mph SSW4.8 kmh SSW 7.0 mph11.3 kmh 29.79 in1008.8 mb 0.00 in0.0 mm 0.00 in0.0 mm 0.00 in0.0 mm
06:20 PM 102.8°F39.3°C 23.2°F-4.9°C 6% 4.0 mph WSW6.4 kmh WSW 9.0 mph14.5 kmh 29.79 in1008.8 mb 0.00 in0.0 mm 0.00 in0.0 mm 0.00 in0.0 mm
06:25 PM 102.7°F39.3°C 23.1°F-4.9°C 6% 5.0 mph S8.0 kmh S 11.0 mph17.7 kmh 29.79 in1008.8 mb 0.00 in0.0 mm 0.00 in0.0 mm 0.00 in0.0 mm
06:30 PM 102.7°F39.3°C 23.1°F-4.9°C 6% 4.0 mph SW6.4 kmh SW 9.0 mph14.5 kmh 29.79 in1008.8 mb 0.00 in0.0 mm 0.00 in0.0 mm 0.00 in0.0 mm
06:35 PM 102.5°F39.2°C 23.0°F-5.0°C 6% 5.0 mph SW8.0 kmh SW 7.0 mph11.3 kmh 29.79 in1008.8 mb 0.00 in0.0 mm 0.00 in0.0 mm 0.00 in0.0 mm
06:40 PM 102.2°F39.0°C 22.8°F-5.1°C 6% 6.0 mph SW9.7 kmh SW 11.0 mph17.7 kmh 29.79 in1008.8 mb 0.00 in0.0 mm 0.00 in0.0 mm 0.00 in0.0 mm
06:45 PM 101.9°F38.8°C 22.5°F-5.3°C 6% 6.0 mph WSW9.7 kmh WSW 10.0 mph16.1 kmh 29.79 in1008.8 mb 0.00 in0.0 mm 0.00 in0.0 mm 0.00 in0.0 mm
06:50 PM 101.6°F38.7°C 22.3°F-5.4°C 6% 2.0 mph WSW3.2 kmh WSW 9.0 mph14.5 kmh 29.79 in1008.8 mb 0.00 in0.0 mm 0.00 in0.0 mm 0.00 in0.0 mm
06:55 PM 101.4°F38.6°C 22.2°F-5.4°C 6% 2.0 mph SW3.2 kmh SW 7.0 mph11.3 kmh 29.80 in1009.1 mb 0.00 in0.0 mm 0.00 in0.0 mm 0.00 in0.0 mm
07:00 PM 101.0°F38.3°C 21.9°F-5.6°C 6% 4.0 mph SW6.4 kmh SW 11.0 mph17.7 kmh 29.80 in1009.1 mb 0.00 in0.0 mm 0.00 in0.0 mm 0.00 in0.0 mm
07:05 PM 100.8°F38.2°C 21.8°F-5.7°C 6% 1.0 mph SW1.6 kmh SW 7.0 mph11.3 kmh 29.80 in1009.1 mb 0.00 in0.0 mm 0.00 in0.0 mm 0.00 in0.0 mm
07:10 PM 100.6°F38.1°C 21.6°F-5.8°C 6% 7.0 mph SW11.3 kmh SW 9.0 mph14.5 kmh 29.80 in1009.1 mb 0.00 in0.0 mm 0.00 in0.0 mm 0.00 in0.0 mm
07:15 PM 100.4°F38.0°C 25.1°F-3.8°C 7% 5.0 mph WSW8.0 kmh WSW 9.0 mph14.5 kmh 29.80 in1009.1 mb 0.00 in0.0 mm 0.00 in0.0 mm 0.00 in0.0 mm
07:20 PM 100.1°F37.8°C 24.9°F-3.9°C 7% 3.0 mph WSW4.8 kmh WSW 8.0 mph12.9 kmh 29.80 in1009.1 mb 0.00 in0.0 mm 0.00 in0.0 mm 0.00 in0.0 mm
07:25 PM 99.8°F37.7°C 24.7°F-4.1°C 7% 4.0 mph SW6.4 kmh SW 7.0 mph11.3 kmh 29.80 in1009.1 mb 0.00 in0.0 mm 0.00 in0.0 mm 0.00 in0.0 mm
07:30 PM 99.3°F37.4°C 20.7°F-6.3°C 6% 3.0 mph SW4.8 kmh SW 8.0 mph12.9 kmh 29.80 in1009.1 mb 0.00 in0.0 mm 0.00 in0.0 mm 0.00 in0.0 mm
07:35 PM 98.9°F37.2°C 20.4°F-6.4°C 6% 1.0 mph SW1.6 kmh SW 6.0 mph9.7 kmh 29.80 in1009.1 mb 0.00 in0.0 mm 0.00 in0.0 mm 0.00 in0.0 mm
07:40 PM 98.6°F37.0°C 20.2°F-6.6°C 6% 2.0 mph SW3.2 kmh SW 6.0 mph9.7 kmh 29.80 in1009.1 mb 0.00 in0.0 mm 0.00 in0.0 mm 0.00 in0.0 mm
07:45 PM 98.2°F36.8°C 23.6°F-4.7°C 7% Calm Calm 4.0 mph6.4 kmh 29.81 in1009.5 mb 0.00 in0.0 mm 0.00 in0.0 mm 0.00 in0.0 mm
07:50 PM 97.9°F36.6°C 23.3°F-4.8°C 7% Calm Calm 2.0 mph3.2 kmh 29.81 in1009.5 mb 0.00 in0.0 mm 0.00 in0.0 mm 0.00 in0.0 mm
07:55 PM 97.6°F36.4°C 23.1°F-4.9°C 7% Calm Calm 3.0 mph4.8 kmh 29.81 in1009.5 mb 0.00 in0.0 mm 0.00 in0.0 mm 0.00 in0.0 mm
08:00 PM 97.2°F36.2°C 22.8°F-5.1°C 7% 1.0 mph SW1.6 kmh SW 2.0 mph3.2 kmh 29.81 in1009.5 mb 0.00 in0.0 mm 0.00 in0.0 mm 0.00 in0.0 mm
08:05 PM 96.8°F36.0°C 22.6°F-5.2°C 7% 1.0 mph SW1.6 kmh SW 4.0 mph6.4 kmh 29.81 in1009.5 mb 0.00 in0.0 mm 0.00 in0.0 mm 0.00 in0.0 mm
08:10 PM 96.2°F35.7°C 22.1°F-5.5°C 7% Calm Calm 4.0 mph6.4 kmh 29.81 in1009.5 mb 0.00 in0.0 mm 0.00 in0.0 mm 0.00 in0.0 mm
08:15 PM 95.7°F35.4°C 24.9°F-3.9°C 8% 7.0 mph WSW11.3 kmh WSW 8.0 mph12.9 kmh 29.82 in1009.8 mb 0.00 in0.0 mm 0.00 in0.0 mm 0.00 in0.0 mm
08:20 PM 95.3°F35.2°C 30.1°F-1.1°C 10% 5.0 mph W8.0 kmh W 9.0 mph14.5 kmh 29.82 in1009.8 mb 0.00 in0.0 mm 0.00 in0.0 mm 0.00 in0.0 mm
08:25 PM 95.1°F35.1°C 29.9°F-1.2°C 10% 2.0 mph WSW3.2 kmh WSW 5.0 mph8.0 kmh 29.82 in1009.8 mb 0.00 in0.0 mm 0.00 in0.0 mm 0.00 in0.0 mm
08:30 PM 94.9°F34.9°C 29.8°F-1.2°C 10% Calm Calm 5.0 mph8.0 kmh 29.82 in1009.8 mb 0.00 in0.0 mm 0.00 in0.0 mm 0.00 in0.0 mm
08:35 PM 94.7°F34.8°C 29.6°F-1.3°C 10% 1.0 mph WSW1.6 kmh WSW 1.0 mph1.6 kmh 29.82 in1009.8 mb 0.00 in0.0 mm 0.00 in0.0 mm 0.00 in0.0 mm
08:40 PM 94.3°F34.6°C 31.6°F-0.2°C 11% 1.0 mph WSW1.6 kmh WSW 5.0 mph8.0 kmh 29.83 in1010.2 mb 0.00 in0.0 mm 0.00 in0.0 mm 0.00 in0.0 mm
08:45 PM 94.0°F34.4°C 31.4°F-0.3°C 11% 2.0 mph W3.2 kmh W 4.0 mph6.4 kmh 29.83 in1010.2 mb 0.00 in0.0 mm 0.00 in0.0 mm 0.00 in0.0 mm
08:50 PM 93.6°F34.2°C 31.1°F-0.5°C 11% Calm Calm 2.0 mph3.2 kmh 29.83 in1010.2 mb 0.00 in0.0 mm 0.00 in0.0 mm 0.00 in0.0 mm
08:55 PM 93.2°F34.0°C 30.8°F-0.7°C 11% Calm Calm -- 29.83 in1010.2 mb 0.00 in0.0 mm 0.00 in0.0 mm 0.00 in0.0 mm
09:00 PM 92.7°F33.7°C 32.6°F0.3°C 12% 1.0 mph W1.6 kmh W 2.0 mph3.2 kmh 29.83 in1010.2 mb 0.00 in0.0 mm 0.00 in0.0 mm 0.00 in0.0 mm
09:05 PM 92.0°F33.3°C 32.0°F0.0°C 12% Calm Calm 2.0 mph3.2 kmh 29.84 in1010.5 mb 0.00 in0.0 mm 0.00 in0.0 mm 0.00 in0.0 mm
09:10 PM 91.7°F33.2°C 31.8°F-0.1°C 12% Calm Calm -- 29.84 in1010.5 mb 0.00 in0.0 mm 0.00 in0.0 mm 0.00 in0.0 mm
09:15 PM 91.3°F32.9°C 31.5°F-0.3°C 12% Calm Calm 2.0 mph3.2 kmh 29.84 in1010.5 mb 0.00 in0.0 mm 0.00 in0.0 mm 0.00 in0.0 mm
09:20 PM 90.8°F32.7°C 31.1°F-0.5°C 12% Calm Calm 1.0 mph1.6 kmh 29.84 in1010.5 mb 0.00 in0.0 mm 0.00 in0.0 mm 0.00 in0.0 mm
09:25 PM 90.2°F32.3°C 30.7°F-0.7°C 12% Calm Calm -- 29.84 in1010.5 mb 0.00 in0.0 mm 0.00 in0.0 mm 0.00 in0.0 mm
09:30 PM 89.4°F31.9°C 32.0°F0.0°C 13% Calm Calm 2.0 mph3.2 kmh 29.85 in1010.8 mb 0.00 in0.0 mm 0.00 in0.0 mm 0.00 in0.0 mm
09:35 PM 89.0°F31.7°C 31.7°F-0.2°C 13% Calm Calm 2.0 mph3.2 kmh 29.85 in1010.8 mb 0.00 in0.0 mm 0.00 in0.0 mm 0.00 in0.0 mm
09:40 PM 88.7°F31.5°C 31.5°F-0.3°C 13% Calm Calm -- 29.85 in1010.8 mb 0.00 in0.0 mm 0.00 in0.0 mm 0.00 in0.0 mm
09:45 PM 88.3°F31.3°C 31.2°F-0.4°C 13% Calm Calm -- 29.85 in1010.8 mb 0.00 in0.0 mm 0.00 in0.0 mm 0.00 in0.0 mm
09:50 PM 87.7°F30.9°C 32.5°F0.3°C 14% Calm Calm -- 29.86 in1011.2 mb 0.00 in0.0 mm 0.00 in0.0 mm 0.00 in0.0 mm
09:55 PM 87.0°F30.6°C 32.0°F0.0°C 14% Calm Calm -- 29.86 in1011.2 mb 0.00 in0.0 mm 0.00 in0.0 mm 0.00 in0.0 mm
10:00 PM 86.5°F30.3°C 31.6°F-0.2°C 14% Calm Calm -- 29.86 in1011.2 mb 0.00 in0.0 mm 0.00 in0.0 mm 0.00 in0.0 mm
10:05 PM 85.7°F29.8°C 32.7°F0.4°C 15% Calm Calm -- 29.86 in1011.2 mb 0.00 in0.0 mm 0.00 in0.0 mm 0.00 in0.0 mm
10:10 PM 85.0°F29.4°C 32.1°F0.1°C 15% Calm Calm 2.0 mph3.2 kmh 29.87 in1011.5 mb 0.00 in0.0 mm 0.00 in0.0 mm 0.00 in0.0 mm
10:15 PM 84.7°F29.3°C 31.9°F-0.1°C 15% Calm Calm 1.0 mph1.6 kmh 29.87 in1011.5 mb 0.00 in0.0 mm 0.00 in0.0 mm 0.00 in0.0 mm
10:20 PM 84.2°F29.0°C 31.5°F-0.3°C 15% Calm Calm 1.0 mph1.6 kmh 29.87 in1011.5 mb 0.00 in0.0 mm 0.00 in0.0 mm 0.00 in0.0 mm
10:25 PM 83.9°F28.8°C 31.2°F-0.4°C 15% Calm Calm -- 29.88 in1011.9 mb 0.00 in0.0 mm 0.00 in0.0 mm 0.00 in0.0 mm
10:30 PM 83.7°F28.7°C 31.1°F-0.5°C 15% 1.0 mph NW1.6 kmh NW 2.0 mph3.2 kmh 29.88 in1011.9 mb 0.00 in0.0 mm 0.00 in0.0 mm 0.00 in0.0 mm
10:35 PM 83.6°F28.7°C 31.0°F-0.6°C 15% 8.0 mph ESE12.9 kmh ESE 8.0 mph12.9 kmh 29.88 in1011.9 mb 0.00 in0.0 mm 0.00 in0.0 mm 0.00 in0.0 mm
10:40 PM 84.1°F28.9°C 31.4°F-0.3°C 15% 2.0 mph SE3.2 kmh SE 8.0 mph12.9 kmh 29.88 in1011.9 mb 0.00 in0.0 mm 0.00 in0.0 mm 0.00 in0.0 mm
10:45 PM 84.8°F29.3°C 30.2°F-1.0°C 14% 4.0 mph SE6.4 kmh SE 4.0 mph6.4 kmh 29.88 in1011.9 mb 0.00 in0.0 mm 0.00 in0.0 mm 0.00 in0.0 mm
10:50 PM 85.2°F29.6°C 32.3°F0.2°C 15% Calm Calm 4.0 mph6.4 kmh 29.88 in1011.9 mb 0.00 in0.0 mm 0.00 in0.0 mm 0.00 in0.0 mm
10:55 PM 85.4°F29.7°C 32.4°F0.2°C 15% Calm Calm 1.0 mph1.6 kmh 29.88 in1011.9 mb 0.00 in0.0 mm 0.00 in0.0 mm 0.00 in0.0 mm
11:00 PM 85.3°F29.6°C 32.3°F0.2°C 15% Calm Calm -- 29.88 in1011.9 mb 0.00 in0.0 mm 0.00 in0.0 mm 0.00 in0.0 mm
11:05 PM 85.2°F29.6°C 33.9°F1.1°C 16% Calm Calm -- 29.89 in1012.2 mb 0.00 in0.0 mm 0.00 in0.0 mm 0.00 in0.0 mm
11:10 PM 85.1°F29.5°C 33.8°F1.0°C 16% Calm Calm -- 29.89 in1012.2 mb 0.00 in0.0 mm 0.00 in0.0 mm 0.00 in0.0 mm
11:15 PM 84.8°F29.3°C 33.6°F0.9°C 16% Calm Calm 3.0 mph4.8 kmh 29.89 in1012.2 mb 0.00 in0.0 mm 0.00 in0.0 mm 0.00 in0.0 mm
11:20 PM 84.6°F29.2°C 33.4°F0.8°C 16% Calm Calm -- 29.89 in1012.2 mb 0.00 in0.0 mm 0.00 in0.0 mm 0.00 in0.0 mm
11:25 PM 84.2°F29.0°C 34.6°F1.4°C 17% Calm Calm -- 29.89 in1012.2 mb 0.00 in0.0 mm 0.00 in0.0 mm 0.00 in0.0 mm
11:30 PM 84.0°F28.9°C 34.4°F1.3°C 17% Calm Calm -- 29.89 in1012.2 mb 0.00 in0.0 mm 0.00 in0.0 mm 0.00 in0.0 mm
11:35 PM 83.8°F28.8°C 35.7°F2.1°C 18% Calm Calm -- 29.89 in1012.2 mb 0.00 in0.0 mm 0.00 in0.0 mm 0.00 in0.0 mm
11:40 PM 83.5°F28.6°C 35.5°F1.9°C 18% Calm Calm -- 29.89 in1012.2 mb 0.00 in0.0 mm 0.00 in0.0 mm 0.00 in0.0 mm
11:45 PM 83.0°F28.3°C 35.1°F1.7°C 18% Calm Calm 2.0 mph3.2 kmh 29.89 in1012.2 mb 0.00 in0.0 mm 0.00 in0.0 mm 0.00 in0.0 mm
11:50 PM 82.6°F28.1°C 34.7°F1.5°C 18% Calm Calm -- 29.89 in1012.2 mb 0.00 in0.0 mm 0.00 in0.0 mm 0.00 in0.0 mm
11:55 PM 82.4°F28.0°C 35.9°F2.2°C 19% Calm Calm -- 29.89 in1012.2 mb 0.00 in0.0 mm 0.00 in0.0 mm 0.00 in0.0 mm